Time;durP1;ratioP1;P1;durP2;ratioP2;P2;SDS_P1;SDS_P2;PMS_P1;PMS_P2;Temp;Humidity;BMP_temperature;BMP_pressure;BME280_temperature;BME280_humidity;BME280_pressure;Samples;Min_cycle;Max_cycle;Signal;HPM_P1;HPM_P2
2022/10/14 00:00:51;;;;;;;;;13.25;13.25;;;;;;;;5079442;28;45342;-70
2022/10/14 00:03:16;;;;;;;;;16.50;16.50;;;;;;;;5078518;28;45330;-71
2022/10/14 00:05:42;;;;;;;;;16.25;16.25;;;;;;;;5082128;28;44747;-72
2022/10/14 00:08:08;;;;;;;;;15.50;15.50;;;;;;;;5061809;28;45611;-72
2022/10/14 00:10:35;;;;;;;;;16.25;16.25;;;;;;;;5080223;28;46099;-72
2022/10/14 00:13:00;;;;;;;;;14.00;14.00;;;;;;;;5079925;28;45326;-72
2022/10/14 00:15:26;;;;;;;;;13.50;13.50;;;;;;;;5078088;28;45326;-75
2022/10/14 00:17:51;;;;;;;;;12.25;12.25;;;;;;;;5078406;28;45273;-76
2022/10/14 00:20:16;;;;;;;;;14.00;14.00;;;;;;;;5079187;27;45581;-74
2022/10/14 00:22:41;;;;;;;;;14.25;14.25;;;;;;;;5097877;27;45439;-71
2022/10/14 00:25:07;;;;;;;;;14.50;14.50;;;;;;;;5097807;27;45180;-73
2022/10/14 00:27:32;;;;;;;;;12.00;11.75;;;;;;;;5098353;27;45598;-74
2022/10/14 00:29:57;;;;;;;;;13.25;13.25;;;;;;;;5096641;27;46949;-73
2022/10/14 00:32:23;;;;;;;;;13.00;13.00;;;;;;;;5098187;27;45191;-72
2022/10/14 00:34:48;;;;;;;;;3.25;3.25;;;;;;;;5097626;27;45245;-72
2022/10/14 00:37:13;;;;;;;;;14.00;14.00;;;;;;;;5098238;27;45292;-71
2022/10/14 00:39:38;;;;;;;;;12.25;12.25;;;;;;;;5097747;27;46478;-72
2022/10/14 00:42:04;;;;;;;;;13.00;13.00;;;;;;;;5097681;27;45296;-72
2022/10/14 00:44:29;;;;;;;;;12.25;12.25;;;;;;;;5098131;27;45180;-73
2022/10/14 00:46:54;;;;;;;;;10.75;10.75;;;;;;;;5098095;27;45583;-73
2022/10/14 00:49:22;;;;;;;;;13.00;13.00;;;;;;;;5097388;27;46252;-72
2022/10/14 00:51:51;;;;;;;;;10.25;10.25;;;;;;;;5097574;27;45466;-74
2022/10/14 00:54:17;;;;;;;;;12.75;12.75;;;;;;;;5098093;27;45338;-73
2022/10/14 00:56:43;;;;;;;;;9.75;9.75;;;;;;;;5096556;27;45184;-71
2022/10/14 00:59:09;;;;;;;;;12.50;12.50;;;;;;;;5100466;27;45364;-75
2022/10/14 01:01:34;;;;;;;;;10.50;10.50;;;;;;;;5101979;27;45358;-72
2022/10/14 01:03:59;;;;;;;;;11.75;11.75;;;;;;;;5098765;27;45364;-75
2022/10/14 01:06:40;;;;;;;;;10.25;10.25;;;;;;;;5098201;27;45313;-76
2022/10/14 01:09:24;;;;;;;;;11.50;11.50;;;;;;;;5099210;27;46289;-71
2022/10/14 01:12:07;;;;;;;;;12.50;11.25;;;;;;;;5106584;27;45325;-77
2022/10/14 01:14:51;;;;;;;;;11.00;11.00;;;;;;;;5098525;27;45376;-73
2022/10/14 01:17:34;;;;;;;;;9.00;9.00;;;;;;;;5097903;27;45542;-74
2022/10/14 01:20:11;;;;;;;;;6.00;6.00;;;;;;;;5098386;27;46401;-74
2022/10/14 01:22:36;;;;;;;;;11.50;11.50;;;;;;;;5098801;27;45192;-73
2022/10/14 01:25:04;;;;;;;;;11.00;11.00;;;;;;;;5098006;27;45528;-76
2022/10/14 01:27:29;;;;;;;;;10.75;10.75;;;;;;;;5099564;27;45255;-74
2022/10/14 01:30:04;;;;;;;;;9.00;9.00;;;;;;;;5100774;27;45357;-73
2022/10/14 01:32:37;;;;;;;;;8.25;8.25;;;;;;;;5100372;27;45401;-71
2022/10/14 01:35:21;;;;;;;;;9.00;9.00;;;;;;;;5100686;27;45481;-74
2022/10/14 01:37:50;;;;;;;;;8.00;8.00;;;;;;;;5101000;27;45566;-73
2022/10/14 01:40:33;;;;;;;;;6.75;6.75;;;;;;;;5100477;27;45445;-72
2022/10/14 01:43:00;;;;;;;;;7.75;7.75;;;;;;;;5100498;27;45405;-73
2022/10/14 01:45:28;;;;;;;;;8.00;8.00;;;;;;;;5102455;27;45409;-74
2022/10/14 01:47:55;;;;;;;;;8.00;8.00;;;;;;;;5106734;27;45259;-72
2022/10/14 01:50:21;;;;;;;;;7.00;7.00;;;;;;;;5103307;27;46324;-71
2022/10/14 01:52:53;;;;;;;;;6.00;6.00;;;;;;;;5115364;27;45834;-75
2022/10/14 01:55:23;;;;;;;;;8.00;8.00;;;;;;;;5101742;27;45386;-72
2022/10/14 01:57:50;;;;;;;;;7.00;7.00;;;;;;;;5101184;27;45233;-75
2022/10/14 02:00:15;;;;;;;;;7.00;7.00;;;;;;;;5101143;27;45466;-75
2022/10/14 02:02:41;;;;;;;;;19.50;19.50;;;;;;;;5101599;27;45284;-74
2022/10/14 02:05:09;;;;;;;;;7.50;7.50;;;;;;;;5103388;27;45294;-76
2022/10/14 02:07:34;;;;;;;;;6.00;6.00;;;;;;;;5103921;27;45201;-74
2022/10/14 02:10:02;;;;;;;;;7.75;7.75;;;;;;;;5103363;27;46453;-74
2022/10/14 02:12:28;;;;;;;;;8.00;8.00;;;;;;;;5102180;27;45382;-73
2022/10/14 02:14:56;;;;;;;;;7.50;7.50;;;;;;;;5101140;27;45705;-74
2022/10/14 02:17:30;;;;;;;;;7.75;7.75;;;;;;;;5100524;27;45352;-71
2022/10/14 02:19:55;;;;;;;;;8.00;8.00;;;;;;;;5081407;27;47667;-73
2022/10/14 02:22:23;;;;;;;;;7.25;7.25;;;;;;;;5099678;27;45511;-73
2022/10/14 02:24:53;;;;;;;;;6.75;6.75;;;;;;;;5100115;27;45455;-74
2022/10/14 02:27:20;;;;;;;;;8.75;8.75;;;;;;;;5100295;27;45251;-72
2022/10/14 02:29:46;;;;;;;;;6.75;6.75;;;;;;;;5101373;27;46211;-72
2022/10/14 02:32:17;;;;;;;;;7.25;7.25;;;;;;;;5108350;27;45470;-73
2022/10/14 02:34:44;;;;;;;;;8.25;8.25;;;;;;;;5106040;27;45381;-75
2022/10/14 02:37:10;;;;;;;;;8.75;8.75;;;;;;;;5103174;27;45423;-71
2022/10/14 02:39:37;;;;;;;;;14.25;14.25;;;;;;;;5103163;27;48020;-70
2022/10/14 02:42:04;;;;;;;;;11.75;11.75;;;;;;;;5108852;27;45906;-71
2022/10/14 02:44:29;;;;;;;;;11.00;11.00;;;;;;;;5100984;27;45409;-73
2022/10/14 02:46:55;;;;;;;;;10.75;10.00;;;;;;;;5099640;27;45577;-74
2022/10/14 02:49:20;;;;;;;;;10.50;10.50;;;;;;;;5098928;27;47780;-73
2022/10/14 02:51:46;;;;;;;;;10.75;10.75;;;;;;;;5099180;27;45214;-73
2022/10/14 02:54:11;;;;;;;;;8.75;8.75;;;;;;;;5099410;27;45408;-72
2022/10/14 02:56:36;;;;;;;;;9.00;9.00;;;;;;;;5100184;27;45215;-72
2022/10/14 02:59:02;;;;;;;;;10.75;10.25;;;;;;;;5099249;27;45335;-74
2022/10/14 03:01:27;;;;;;;;;7.25;7.25;;;;;;;;5099153;27;45338;-72
2022/10/14 03:03:52;;;;;;;;;10.00;10.00;;;;;;;;5099015;27;45324;-72
2022/10/14 03:06:17;;;;;;;;;15.75;15.75;;;;;;;;5097741;27;45341;-73
2022/10/14 03:08:43;;;;;;;;;8.00;8.00;;;;;;;;5108566;27;45376;-72
2022/10/14 03:11:08;;;;;;;;;6.00;6.00;;;;;;;;5108730;27;45215;-73
2022/10/14 03:13:33;;;;;;;;;6.00;6.00;;;;;;;;5099463;27;45238;-72
2022/10/14 03:15:58;;;;;;;;;8.00;8.00;;;;;;;;5099376;27;45258;-74
2022/10/14 03:18:24;;;;;;;;;8.75;8.75;;;;;;;;5099539;27;45862;-73
2022/10/14 03:20:49;;;;;;;;;7.50;7.50;;;;;;;;5098911;27;45394;-72
2022/10/14 03:23:14;;;;;;;;;8.00;8.00;;;;;;;;5099731;27;45243;-73
2022/10/14 03:25:42;;;;;;;;;5.00;5.00;;;;;;;;5099926;27;45563;-74
2022/10/14 03:28:07;;;;;;;;;3.00;3.00;;;;;;;;5099176;27;45419;-73
2022/10/14 03:30:32;;;;;;;;;7.00;7.00;;;;;;;;5099404;27;45434;-73
2022/10/14 03:32:57;;;;;;;;;7.00;7.00;;;;;;;;5103017;27;45219;-74
2022/10/14 03:35:23;;;;;;;;;6.00;6.00;;;;;;;;5107848;27;45247;-73
2022/10/14 03:37:48;;;;;;;;;6.50;6.50;;;;;;;;5106787;27;45358;-74
2022/10/14 03:40:13;;;;;;;;;7.00;7.00;;;;;;;;5101094;27;45376;-73
2022/10/14 03:42:39;;;;;;;;;6.25;6.25;;;;;;;;5099762;27;45263;-72
2022/10/14 03:45:04;;;;;;;;;5.00;5.00;;;;;;;;5099886;27;45559;-72
2022/10/14 03:47:30;;;;;;;;;6.00;6.00;;;;;;;;5099583;27;46459;-74
2022/10/14 03:49:55;;;;;;;;;6.75;6.75;;;;;;;;5098445;27;45274;-74
2022/10/14 03:52:21;;;;;;;;;5.00;5.00;;;;;;;;5098339;27;45388;-75
2022/10/14 03:54:46;;;;;;;;;5.00;5.00;;;;;;;;5099396;27;45218;-73
2022/10/14 03:57:11;;;;;;;;;5.00;5.00;;;;;;;;5099326;27;45293;-73
2022/10/14 03:59:36;;;;;;;;;3.75;3.75;;;;;;;;5097955;27;45339;-71
2022/10/14 04:02:01;;;;;;;;;4.00;4.00;;;;;;;;5101651;27;45354;-74
2022/10/14 04:04:26;;;;;;;;;4.00;4.00;;;;;;;;5100074;27;45182;-71
2022/10/14 04:06:52;;;;;;;;;4.50;4.50;;;;;;;;5098538;27;45616;-72
2022/10/14 04:09:17;;;;;;;;;4.50;4.50;;;;;;;;5098273;27;45553;-72
2022/10/14 04:11:42;;;;;;;;;3.50;3.50;;;;;;;;5098687;27;45407;-72
2022/10/14 04:14:08;;;;;;;;;2.50;2.50;;;;;;;;5098783;27;45533;-72
2022/10/14 04:16:33;;;;;;;;;3.00;3.00;;;;;;;;5097969;27;47442;-74
2022/10/14 04:18:58;;;;;;;;;5.25;5.25;;;;;;;;5097645;27;45357;-72
2022/10/14 04:21:23;;;;;;;;;4.00;4.00;;;;;;;;5098114;27;45374;-71
2022/10/14 04:23:49;;;;;;;;;4.00;4.00;;;;;;;;5098507;27;45389;-75
2022/10/14 04:26:14;;;;;;;;;3.00;3.00;;;;;;;;5099240;27;45289;-74
2022/10/14 04:28:39;;;;;;;;;2.75;2.75;;;;;;;;5099094;27;45434;-71
2022/10/14 04:31:05;;;;;;;;;2.25;2.25;;;;;;;;5097706;27;45305;-70
2022/10/14 04:33:30;;;;;;;;;2.50;2.50;;;;;;;;5097787;27;45293;-73
2022/10/14 04:35:56;;;;;;;;;4.75;3.00;;;;;;;;5097660;27;45612;-72
2022/10/14 04:38:21;;;;;;;;;1.25;1.25;;;;;;;;5097485;27;45399;-71
2022/10/14 04:40:46;;;;;;;;;2.75;2.75;;;;;;;;5098285;27;45229;-72
2022/10/14 04:43:12;;;;;;;;;2.00;2.00;;;;;;;;5098354;27;45554;-75
2022/10/14 04:45:37;;;;;;;;;3.75;3.75;;;;;;;;5103403;27;46609;-72
2022/10/14 04:48:02;;;;;;;;;2.75;2.75;;;;;;;;5111947;27;44704;-74
2022/10/14 04:50:28;;;;;;;;;2.00;2.00;;;;;;;;5099818;27;45324;-74
2022/10/14 04:52:53;;;;;;;;;10.00;10.00;;;;;;;;5100603;27;45522;-75
2022/10/14 04:55:18;;;;;;;;;5.00;5.00;;;;;;;;5101221;27;45214;-71
2022/10/14 04:57:43;;;;;;;;;3.00;3.00;;;;;;;;5098778;27;45251;-72
2022/10/14 05:00:10;;;;;;;;;1.25;1.25;;;;;;;;5098275;27;45306;-72
2022/10/14 05:02:35;;;;;;;;;4.00;4.00;;;;;;;;5099975;27;45345;-75
2022/10/14 05:05:00;;;;;;;;;3.00;3.00;;;;;;;;5102095;27;47419;-73
2022/10/14 05:07:25;;;;;;;;;3.75;3.75;;;;;;;;5105218;27;45256;-74
2022/10/14 05:09:51;;;;;;;;;4.00;4.00;;;;;;;;5101121;27;45188;-72
2022/10/14 05:12:16;;;;;;;;;5.00;5.00;;;;;;;;5100922;27;45496;-74
2022/10/14 05:14:41;;;;;;;;;2.00;2.00;;;;;;;;5100153;27;46894;-71
2022/10/14 05:17:07;;;;;;;;;5.25;5.25;;;;;;;;5082268;27;45448;-72
2022/10/14 05:19:32;;;;;;;;;4.25;4.25;;;;;;;;5083031;28;45541;-72
2022/10/14 05:21:57;;;;;;;;;5.25;5.25;;;;;;;;5083272;27;45424;-74
2022/10/14 05:24:22;;;;;;;;;4.00;4.00;;;;;;;;5081638;28;48561;-76
2022/10/14 05:26:47;;;;;;;;;3.75;3.75;;;;;;;;5081437;27;45303;-71
2022/10/14 05:29:13;;;;;;;;;5.75;5.75;;;;;;;;5079674;28;45425;-74
2022/10/14 05:31:39;;;;;;;;;9.00;9.00;;;;;;;;5078375;28;45518;-70
2022/10/14 05:34:04;;;;;;;;;4.25;4.25;;;;;;;;5079427;27;46163;-74
2022/10/14 05:36:29;;;;;;;;;5.00;5.00;;;;;;;;5079626;27;45307;-72
2022/10/14 05:38:57;;;;;;;;;4.00;4.00;;;;;;;;5080083;27;45495;-73
2022/10/14 05:41:22;;;;;;;;;4.50;4.50;;;;;;;;5078613;28;45379;-72
2022/10/14 05:43:48;;;;;;;;;3.25;3.25;;;;;;;;5079157;27;45783;-71
2022/10/14 05:46:13;;;;;;;;;4.00;4.00;;;;;;;;5079997;27;45181;-75
2022/10/14 05:48:38;;;;;;;;;4.25;4.25;;;;;;;;5079439;27;45309;-73
2022/10/14 05:51:03;;;;;;;;;4.75;4.75;;;;;;;;5079779;27;45587;-72
2022/10/14 05:53:29;;;;;;;;;5.75;5.75;;;;;;;;5079961;27;46711;-71
2022/10/14 05:56:02;;;;;;;;;5.00;5.00;;;;;;;;5080378;27;45234;-71
2022/10/14 05:58:27;;;;;;;;;4.00;4.00;;;;;;;;5080033;27;45283;-70
2022/10/14 06:00:52;;;;;;;;;3.75;3.75;;;;;;;;5078392;28;45394;-72
2022/10/14 06:03:18;;;;;;;;;4.00;4.00;;;;;;;;5078718;28;46042;-74
2022/10/14 06:05:44;;;;;;;;;7.00;7.00;;;;;;;;5080042;27;45314;-72
2022/10/14 06:08:09;;;;;;;;;3.50;3.50;;;;;;;;5080196;28;45327;-73
2022/10/14 06:10:34;;;;;;;;;4.25;4.25;;;;;;;;5078321;28;45455;-72
2022/10/14 06:13:00;;;;;;;;;5.75;5.75;;;;;;;;5077462;28;46604;-74
2022/10/14 06:15:27;;;;;;;;;7.00;7.00;;;;;;;;5078590;28;45313;-73
2022/10/14 06:17:52;;;;;;;;;11.75;11.75;;;;;;;;5076908;28;45324;-73
2022/10/14 06:20:17;;;;;;;;;6.50;6.50;;;;;;;;5078713;27;45657;-71
2022/10/14 06:22:42;;;;;;;;;7.00;7.00;;;;;;;;5076170;28;45452;-74
2022/10/14 06:25:08;;;;;;;;;7.00;7.00;;;;;;;;5077621;27;45406;-71
2022/10/14 06:27:33;;;;;;;;;9.00;9.00;;;;;;;;5088023;27;45395;-72
2022/10/14 06:29:58;;;;;;;;;7.25;7.25;;;;;;;;5100425;27;45623;-71
2022/10/14 06:32:23;;;;;;;;;18.75;18.75;;;;;;;;5087245;27;48255;-71
2022/10/14 06:34:49;;;;;;;;;10.50;9.25;;;;;;;;5086476;27;45514;-73
2022/10/14 06:37:14;;;;;;;;;4.50;4.50;;;;;;;;5097858;27;45356;-72
2022/10/14 06:39:42;;;;;;;;;7.00;7.00;;;;;;;;5080440;27;45528;-72
2022/10/14 06:42:07;;;;;;;;;6.25;6.25;;;;;;;;5078432;27;45937;-72
2022/10/14 06:44:32;;;;;;;;;8.00;8.00;;;;;;;;5078605;27;45450;-75
2022/10/14 06:46:58;;;;;;;;;7.25;7.25;;;;;;;;5082030;27;45248;-71
2022/10/14 06:49:23;;;;;;;;;8.25;8.25;;;;;;;;5089256;27;45627;-71
2022/10/14 06:51:48;;;;;;;;;23.00;23.00;;;;;;;;5098117;27;46309;-72
2022/10/14 06:54:17;;;;;;;;;8.50;8.50;;;;;;;;5098406;27;45198;-73
2022/10/14 06:56:52;;;;;;;;;12.50;12.50;;;;;;;;5099943;27;45519;-73
2022/10/14 06:59:18;;;;;;;;;7.75;7.75;;;;;;;;5099846;27;45623;-75
2022/10/14 07:01:43;;;;;;;;;6.00;6.00;;;;;;;;5108706;27;47208;-74
2022/10/14 07:04:09;;;;;;;;;8.25;8.25;;;;;;;;5126361;27;45266;-75
2022/10/14 07:06:35;;;;;;;;;6.75;6.75;;;;;;;;5110406;27;45316;-74
2022/10/14 07:09:00;;;;;;;;;14.25;14.25;;;;;;;;5099446;27;45494;-75
2022/10/14 07:11:25;;;;;;;;;5.75;5.75;;;;;;;;5096237;27;45428;-74
2022/10/14 07:13:50;;;;;;;;;8.00;8.00;;;;;;;;5102179;27;45447;-77
2022/10/14 07:16:15;;;;;;;;;4.50;4.50;;;;;;;;5100908;27;45503;-75
2022/10/14 07:18:41;;;;;;;;;5.00;5.00;;;;;;;;5100551;27;45661;-77
2022/10/14 07:21:07;;;;;;;;;5.00;5.00;;;;;;;;5100710;27;45968;-77
2022/10/14 07:23:32;;;;;;;;;4.00;4.00;;;;;;;;5097968;27;45287;-76
2022/10/14 07:25:58;;;;;;;;;5.50;5.50;;;;;;;;5097779;27;45239;-75
2022/10/14 07:28:24;;;;;;;;;6.25;6.25;;;;;;;;5099245;27;45541;-77
2022/10/14 07:31:00;;;;;;;;;7.00;7.00;;;;;;;;5097373;27;47230;-75
2022/10/14 07:33:25;;;;;;;;;17.00;17.00;;;;;;;;5097477;27;45456;-76
2022/10/14 07:36:38;;;;;;;;;8.25;8.25;;;;;;;;5096808;27;45544;-75
2022/10/14 07:39:04;;;;;;;;;9.00;7.75;;;;;;;;5086657;27;45535;-72
2022/10/14 07:41:30;;;;;;;;;6.50;6.50;;;;;;;;5096597;27;46736;-74
2022/10/14 07:44:01;;;;;;;;;5.25;5.25;;;;;;;;5097531;27;45275;-74
2022/10/14 07:46:33;;;;;;;;;5.00;5.00;;;;;;;;5098275;27;45373;-73
2022/10/14 07:49:07;;;;;;;;;5.00;5.00;;;;;;;;5099559;27;45401;-75
2022/10/14 07:51:33;;;;;;;;;4.00;4.00;;;;;;;;5098892;27;45497;-74
2022/10/14 07:54:00;;;;;;;;;15.25;15.25;;;;;;;;5097457;27;45485;-72
2022/10/14 07:56:28;;;;;;;;;4.00;4.00;;;;;;;;5097875;27;45329;-73
2022/10/14 07:58:53;;;;;;;;;3.00;3.00;;;;;;;;5097486;27;45456;-73
2022/10/14 08:01:19;;;;;;;;;4.00;4.00;;;;;;;;5097409;27;46338;-74
2022/10/14 08:03:44;;;;;;;;;1.00;1.00;;;;;;;;5097875;27;45191;-73
2022/10/14 08:06:10;;;;;;;;;2.75;2.75;;;;;;;;5097264;27;45408;-73
2022/10/14 08:08:36;;;;;;;;;4.00;4.00;;;;;;;;5097785;27;45512;-73
2022/10/14 08:11:11;;;;;;;;;3.25;3.25;;;;;;;;5097370;27;45950;-75
2022/10/14 08:13:37;;;;;;;;;4.00;4.00;;;;;;;;5099164;27;45240;-73
2022/10/14 08:16:11;;;;;;;;;5.25;5.25;;;;;;;;5099102;27;45467;-74
2022/10/14 08:18:36;;;;;;;;;4.50;4.50;;;;;;;;5099648;27;45709;-76
2022/10/14 08:21:01;;;;;;;;;4.75;4.75;;;;;;;;5099043;27;46334;-74
2022/10/14 08:23:26;;;;;;;;;4.00;4.00;;;;;;;;5104484;27;45341;-73
2022/10/14 08:25:52;;;;;;;;;4.25;4.25;;;;;;;;5102867;27;45235;-74
2022/10/14 08:28:17;;;;;;;;;6.00;6.00;;;;;;;;5099520;27;45728;-76
2022/10/14 08:30:42;;;;;;;;;4.75;4.75;;;;;;;;5096843;27;46173;-75
2022/10/14 08:33:08;;;;;;;;;5.00;5.00;;;;;;;;5096377;27;45308;-74
2022/10/14 08:35:33;;;;;;;;;5.00;5.00;;;;;;;;5097158;27;45369;-74
2022/10/14 08:38:01;;;;;;;;;9.25;9.25;;;;;;;;5096125;27;45585;-73
2022/10/14 08:40:30;;;;;;;;;2.75;2.75;;;;;;;;5096986;27;45391;-75
2022/10/14 08:43:14;;;;;;;;;4.50;4.50;;;;;;;;5096970;27;45299;-75
2022/10/14 08:45:46;;;;;;;;;7.25;7.25;;;;;;;;5097140;27;45368;-73
2022/10/14 08:48:20;;;;;;;;;4.00;4.00;;;;;;;;5097862;27;45465;-72
2022/10/14 08:50:48;;;;;;;;;5.25;5.25;;;;;;;;5077863;27;48454;-75
2022/10/14 08:53:20;;;;;;;;;15.50;15.50;;;;;;;;5095984;27;45293;-75
2022/10/14 08:55:47;;;;;;;;;5.50;5.50;;;;;;;;5095438;27;45311;-76
2022/10/14 08:58:31;;;;;;;;;5.50;5.50;;;;;;;;5097352;27;45389;-75
2022/10/14 09:00:58;;;;;;;;;14.00;14.00;;;;;;;;5100176;27;46355;-76
2022/10/14 09:03:31;;;;;;;;;6.75;6.75;;;;;;;;5101077;27;45333;-74
2022/10/14 09:06:02;;;;;;;;;5.75;5.75;;;;;;;;5099147;27;45317;-74
2022/10/14 09:08:31;;;;;;;;;7.25;7.25;;;;;;;;5097782;27;45258;-76
2022/10/14 09:10:57;;;;;;;;;4.75;4.75;;;;;;;;5096803;27;46216;-75
2022/10/14 09:13:37;;;;;;;;;6.75;6.75;;;;;;;;5098050;27;45473;-76
2022/10/14 09:16:08;;;;;;;;;6.00;6.00;;;;;;;;5097738;27;45166;-77
2022/10/14 09:18:38;;;;;;;;;7.00;7.00;;;;;;;;5097190;27;45329;-75
2022/10/14 09:21:19;;;;;;;;;8.00;8.00;;;;;;;;5096018;27;45485;-76
2022/10/14 09:23:44;;;;;;;;;10.75;10.75;;;;;;;;5096906;27;45317;-75
2022/10/14 09:26:14;;;;;;;;;7.50;7.50;;;;;;;;5097121;27;45290;-75
2022/10/14 09:28:42;;;;;;;;;7.50;7.50;;;;;;;;5097373;27;45451;-74
2022/10/14 09:31:10;;;;;;;;;7.50;7.50;;;;;;;;5096282;27;46507;-75
2022/10/14 09:33:38;;;;;;;;;8.00;8.00;;;;;;;;5095532;27;45294;-74
2022/10/14 09:36:04;;;;;;;;;6.00;6.00;;;;;;;;5096433;27;45368;-75
2022/10/14 09:38:29;;;;;;;;;5.25;5.25;;;;;;;;5097368;27;45449;-74
2022/10/14 09:40:57;;;;;;;;;7.50;7.50;;;;;;;;5096557;27;46185;-76
2022/10/14 09:43:23;;;;;;;;;5.25;5.25;;;;;;;;5098560;27;45408;-72
2022/10/14 09:45:52;;;;;;;;;6.25;6.25;;;;;;;;5097240;27;45222;-77
2022/10/14 09:48:26;;;;;;;;;6.00;6.00;;;;;;;;5098173;27;45556;-74
2022/10/14 09:50:54;;;;;;;;;4.00;4.00;;;;;;;;5101096;27;45523;-73
2022/10/14 09:53:35;;;;;;;;;4.75;4.75;;;;;;;;5105545;27;45317;-74
2022/10/14 09:56:02;;;;;;;;;6.00;6.00;;;;;;;;5107009;27;45184;-74
2022/10/14 09:58:49;;;;;;;;;6.00;6.00;;;;;;;;5100365;27;45271;-75
2022/10/14 10:01:17;;;;;;;;;7.75;7.75;;;;;;;;5101715;27;46326;-75
2022/10/14 10:03:44;;;;;;;;;8.00;8.00;;;;;;;;5100617;27;45272;-77
2022/10/14 10:06:11;;;;;;;;;14.50;14.50;;;;;;;;5100581;27;45536;-78
2022/10/14 10:08:37;;;;;;;;;7.25;7.25;;;;;;;;5101166;27;45266;-74
2022/10/14 10:11:09;;;;;;;;;7.00;7.00;;;;;;;;5101537;27;45339;-73
2022/10/14 10:13:45;;;;;;;;;4.75;4.75;;;;;;;;5099538;27;45344;-73
2022/10/14 10:16:19;;;;;;;;;4.75;4.75;;;;;;;;5099665;27;45286;-73
2022/10/14 10:18:44;;;;;;;;;6.00;6.00;;;;;;;;5097844;27;45279;-75
2022/10/14 10:21:16;;;;;;;;;4.75;4.75;;;;;;;;5097527;27;47087;-75
2022/10/14 10:23:50;;;;;;;;;6.00;6.00;;;;;;;;5099485;27;45369;-74
2022/10/14 10:26:17;;;;;;;;;7.75;7.75;;;;;;;;5097837;27;45403;-72
2022/10/14 10:28:48;;;;;;;;;7.00;7.00;;;;;;;;5099772;27;45420;-74
2022/10/14 10:31:17;;;;;;;;;12.00;12.00;;;;;;;;5101540;27;46399;-74
2022/10/14 10:33:50;;;;;;;;;5.75;5.75;;;;;;;;5100839;27;45480;-76
2022/10/14 10:36:27;;;;;;;;;6.75;6.75;;;;;;;;5098519;27;45451;-76
2022/10/14 10:38:58;;;;;;;;;7.00;6.75;;;;;;;;5099830;27;45259;-75
2022/10/14 10:41:42;;;;;;;;;6.25;6.25;;;;;;;;5099758;27;45574;-73
2022/10/14 10:44:08;;;;;;;;;5.75;5.75;;;;;;;;5099984;27;45453;-75
2022/10/14 10:46:54;;;;;;;;;12.25;12.25;;;;;;;;5100280;27;45385;-77
2022/10/14 10:49:28;;;;;;;;;7.75;7.75;;;;;;;;5100590;27;45450;-76
2022/10/14 10:51:58;;;;;;;;;9.00;9.00;;;;;;;;5099962;27;46383;-75
2022/10/14 10:54:43;;;;;;;;;4.75;4.75;;;;;;;;5100048;27;45255;-76
2022/10/14 10:57:23;;;;;;;;;9.75;9.75;;;;;;;;5077521;27;45367;-77
2022/10/14 11:00:05;;;;;;;;;6.50;6.50;;;;;;;;5100563;27;45500;-77
2022/10/14 11:02:39;;;;;;;;;13.00;13.00;;;;;;;;5104281;27;45200;-73
2022/10/14 11:05:17;;;;;;;;;2.50;2.50;;;;;;;;5098468;27;45381;-77
2022/10/14 11:13:47;;;;;;;;;3.50;3.50;;;;;;;;5098854;27;45790;-74
2022/10/14 11:16:12;;;;;;;;;1.00;1.00;;;;;;;;5098018;27;45410;-75
2022/10/14 11:18:44;;;;;;;;;5.75;5.75;;;;;;;;5097958;27;45316;-75
2022/10/14 11:21:18;;;;;;;;;6.75;6.75;;;;;;;;5105070;27;45330;-74
2022/10/14 11:23:43;;;;;;;;;5.00;5.00;;;;;;;;5104201;27;45307;-75
2022/10/14 11:26:12;;;;;;;;;4.50;4.50;;;;;;;;5098102;27;45478;-74
2022/10/14 11:28:56;;;;;;;;;8.25;8.25;;;;;;;;5098099;27;45716;-74
2022/10/14 11:31:26;;;;;;;;;8.50;8.50;;;;;;;;5098688;27;45369;-76
2022/10/14 11:34:10;;;;;;;;;7.75;7.75;;;;;;;;5099754;27;45454;-77
2022/10/14 11:36:48;;;;;;;;;7.00;7.00;;;;;;;;5099515;27;45241;-74
2022/10/14 11:39:13;;;;;;;;;14.75;14.75;;;;;;;;5100705;27;45371;-76
2022/10/14 11:42:02;;;;;;;;;10.50;10.50;;;;;;;;5101060;27;45419;-74
2022/10/14 11:44:32;;;;;;;;;12.25;12.25;;;;;;;;5097359;27;46190;-75
2022/10/14 11:47:01;;;;;;;;;8.00;8.00;;;;;;;;5103308;27;45607;-77
2022/10/14 11:49:31;;;;;;;;;8.75;8.75;;;;;;;;5103636;27;45511;-76
2022/10/14 11:52:01;;;;;;;;;9.50;9.50;;;;;;;;5101505;27;45349;-75
2022/10/14 11:54:32;;;;;;;;;13.00;13.00;;;;;;;;5103440;27;46161;-74
2022/10/14 11:57:03;;;;;;;;;12.75;12.75;;;;;;;;5106436;27;45199;-74
2022/10/14 11:59:44;;;;;;;;;10.00;10.00;;;;;;;;5104091;27;45269;-73
2022/10/14 12:02:09;;;;;;;;;8.75;8.75;;;;;;;;5104237;27;45625;-74
2022/10/14 12:04:35;;;;;;;;;3.75;3.75;;;;;;;;5102818;27;46201;-74
2022/10/14 12:07:04;;;;;;;;;6.50;6.50;;;;;;;;5100977;27;45303;-74
2022/10/14 12:09:29;;;;;;;;;6.00;6.00;;;;;;;;5098035;27;45235;-74
2022/10/14 12:12:00;;;;;;;;;3.75;3.75;;;;;;;;5097140;27;45329;-72
2022/10/14 12:14:33;;;;;;;;;11.50;11.50;;;;;;;;5100655;27;45595;-74
2022/10/14 12:17:01;;;;;;;;;7.00;7.00;;;;;;;;5099804;27;45256;-74
2022/10/14 12:19:27;;;;;;;;;9.25;9.25;;;;;;;;5097013;27;45467;-76
2022/10/14 12:22:00;;;;;;;;;7.00;7.00;;;;;;;;5098263;27;45513;-74
2022/10/14 12:24:29;;;;;;;;;7.00;7.00;;;;;;;;5097498;27;46074;-77
2022/10/14 12:26:59;;;;;;;;;5.00;5.00;;;;;;;;5096107;27;45378;-76
2022/10/14 12:29:27;;;;;;;;;6.50;6.50;;;;;;;;5097271;27;45279;-75
2022/10/14 12:32:01;;;;;;;;;8.50;8.50;;;;;;;;5096709;27;45296;-74
2022/10/14 12:34:30;;;;;;;;;24.00;22.75;;;;;;;;5096015;27;45376;-74
2022/10/14 12:36:55;;;;;;;;;10.50;10.50;;;;;;;;5095756;27;45272;-73
2022/10/14 12:39:21;;;;;;;;;8.25;8.25;;;;;;;;5094967;27;45316;-74
2022/10/14 12:41:49;;;;;;;;;11.00;11.00;;;;;;;;5096764;27;45640;-74
2022/10/14 12:44:17;;;;;;;;;12.00;12.00;;;;;;;;5098255;27;45360;-74
2022/10/14 12:46:43;;;;;;;;;5.50;5.50;;;;;;;;5097564;27;45246;-74
2022/10/14 12:49:15;;;;;;;;;7.00;7.00;;;;;;;;5097053;27;45215;-76
2022/10/14 12:51:54;;;;;;;;;11.00;11.00;;;;;;;;5097142;27;45420;-75
2022/10/14 12:54:20;;;;;;;;;8.25;8.25;;;;;;;;5097468;27;45368;-76
2022/10/14 12:57:12;;;;;;;;;19.50;19.50;;;;;;;;5096624;27;45314;-75
2022/10/14 12:59:37;;;;;;;;;14.00;14.00;;;;;;;;5083472;27;45346;-76
2022/10/14 13:02:22;;;;;;;;;8.25;8.25;;;;;;;;5102619;27;45416;-74
2022/10/14 13:04:52;;;;;;;;;10.00;9.50;;;;;;;;5096526;27;45639;-75
2022/10/14 13:07:17;;;;;;;;;19.50;19.50;;;;;;;;5096285;27;45360;-75
2022/10/14 13:09:46;;;;;;;;;10.00;10.00;;;;;;;;5096957;27;45263;-75
2022/10/14 13:12:20;;;;;;;;;9.50;9.50;;;;;;;;5095790;27;45437;-76
2022/10/14 13:15:02;;;;;;;;;9.25;9.25;;;;;;;;5096163;27;45757;-76
2022/10/14 13:17:27;;;;;;;;;14.50;14.50;;;;;;;;5094250;27;45463;-77
2022/10/14 13:19:53;;;;;;;;;8.00;8.00;;;;;;;;5095354;27;45280;-77
2022/10/14 13:22:27;;;;;;;;;13.75;13.75;;;;;;;;5098443;27;45763;-76
2022/10/14 13:24:59;;;;;;;;;17.00;17.00;;;;;;;;5100666;27;45692;-76
2022/10/14 13:27:32;;;;;;;;;13.50;13.50;;;;;;;;5098041;27;45470;-76
2022/10/14 13:30:12;;;;;;;;;8.00;8.00;;;;;;;;5100581;27;45366;-77
2022/10/14 13:32:46;;;;;;;;;9.00;9.00;;;;;;;;5100391;27;45156;-76
2022/10/14 13:35:17;;;;;;;;;8.50;8.50;;;;;;;;5099181;27;46162;-77
2022/10/14 13:37:44;;;;;;;;;7.75;7.75;;;;;;;;5099577;27;45419;-75
2022/10/14 13:40:16;;;;;;;;;6.75;6.75;;;;;;;;5100129;27;45260;-74
2022/10/14 13:42:41;;;;;;;;;11.75;11.75;;;;;;;;5099933;27;45395;-74
2022/10/14 13:45:10;;;;;;;;;26.50;26.25;;;;;;;;5099041;27;46210;-75
2022/10/14 13:47:39;;;;;;;;;16.25;16.25;;;;;;;;5099502;27;45247;-76
2022/10/14 13:50:05;;;;;;;;;7.00;7.00;;;;;;;;5098303;27;45436;-74
2022/10/14 13:52:32;;;;;;;;;12.00;12.00;;;;;;;;5099383;27;45450;-74
2022/10/14 13:55:10;;;;;;;;;7.25;7.25;;;;;;;;5099533;27;46430;-77
2022/10/14 13:57:36;;;;;;;;;7.50;7.50;;;;;;;;5110198;27;45418;-74
2022/10/14 14:00:01;;;;;;;;;41.00;34.50;;;;;;;;5103746;27;45302;-76
2022/10/14 14:02:27;;;;;;;;;9.00;9.00;;;;;;;;5098531;27;45336;-75
2022/10/14 14:04:54;;;;;;;;;9.50;9.50;;;;;;;;5099150;27;46204;-74
2022/10/14 14:07:21;;;;;;;;;7.00;7.00;;;;;;;;5098843;27;45450;-74
2022/10/14 14:09:48;;;;;;;;;13.75;13.75;;;;;;;;5099739;27;45260;-74
2022/10/14 14:12:14;;;;;;;;;6.00;5.75;;;;;;;;5099599;27;45498;-73
2022/10/14 14:14:40;;;;;;;;;3.00;3.00;;;;;;;;5105302;27;45311;-74
2022/10/14 14:17:11;;;;;;;;;5.50;5.50;;;;;;;;5111400;27;45310;-76
2022/10/14 14:19:36;;;;;;;;;7.50;7.50;;;;;;;;5100118;27;45293;-75
2022/10/14 14:22:06;;;;;;;;;9.00;9.00;;;;;;;;5098430;27;45321;-76
2022/10/14 14:24:33;;;;;;;;;7.00;7.00;;;;;;;;5098954;27;45388;-75
2022/10/14 14:26:58;;;;;;;;;7.00;7.00;;;;;;;;5099304;27;45482;-73
2022/10/14 14:29:29;;;;;;;;;6.50;6.50;;;;;;;;5098555;27;45467;-77
2022/10/14 14:31:56;;;;;;;;;7.50;7.00;;;;;;;;5098244;27;45261;-75
2022/10/14 14:34:22;;;;;;;;;5.00;5.00;;;;;;;;5096799;27;46261;-75
2022/10/14 14:36:48;;;;;;;;;6.50;6.50;;;;;;;;5098142;27;45238;-75
2022/10/14 14:39:19;;;;;;;;;7.25;7.25;;;;;;;;5101140;27;45455;-77
2022/10/14 14:41:48;;;;;;;;;27.50;27.25;;;;;;;;5100603;27;45546;-75
2022/10/14 14:44:15;;;;;;;;;6.00;6.00;;;;;;;;5099324;27;46126;-74
2022/10/14 14:46:41;;;;;;;;;5.00;5.00;;;;;;;;5098715;27;45540;-77
2022/10/14 14:49:10;;;;;;;;;6.00;6.00;;;;;;;;5099485;27;45354;-75